createdAt,value
2022-12-05T00:01:23.980Z,101125.41
2022-12-05T00:03:53.329Z,101131.94
2022-12-05T00:06:22.185Z,101133.56
2022-12-05T00:08:50.102Z,101132.44
2022-12-05T00:11:20.586Z,101134.75
2022-12-05T00:13:48.972Z,101135.69
2022-12-05T00:16:18.975Z,101142.09
2022-12-05T00:18:49.334Z,101148.16
2022-12-05T00:21:25.240Z,101147.16
2022-12-05T00:23:54.305Z,101164.25
2022-12-05T00:26:22.379Z,101166.75
2022-12-05T00:28:50.191Z,101161.63
2022-12-05T00:31:20.299Z,101164.59
2022-12-05T00:33:49.108Z,101162.28
2022-12-05T00:36:21.232Z,101162.81
2022-12-05T00:38:48.710Z,101159.41
2022-12-05T00:41:27.277Z,101166.59
2022-12-05T00:43:56.149Z,101159.34
2022-12-05T00:46:25.528Z,101152.84
2022-12-05T00:48:54.286Z,101151.75
2022-12-05T00:51:30.092Z,101151.97
2022-12-05T00:54:06.986Z,101152.03
2022-12-05T00:56:35.184Z,101151.75
2022-12-05T00:59:03.726Z,101147.63
2022-12-05T01:01:34.383Z,101133.25
2022-12-05T01:04:23.425Z,101131.06
2022-12-05T01:06:56.097Z,101122.91
2022-12-05T01:09:24.225Z,101119.59
2022-12-05T01:11:51.807Z,101125.81
2022-12-05T01:14:22.917Z,101117.38
2022-12-05T01:16:52.072Z,101115.16
2022-12-05T01:19:23.240Z,101120.09
2022-12-05T01:21:51.680Z,101108.22
2022-12-05T01:24:20.248Z,101108.22
2022-12-05T01:26:48.317Z,101111.75
2022-12-05T01:29:19.224Z,101108.44
2022-12-05T01:31:46.723Z,101097.88
2022-12-05T01:34:16.204Z,101104.09
2022-12-05T01:36:44.342Z,101109.94
2022-12-05T01:39:13.537Z,101112.25
2022-12-05T01:41:49.644Z,101092.75
2022-12-05T01:44:16.923Z,101102.19
2022-12-05T01:46:47.687Z,101108.72
2022-12-05T01:49:25.749Z,101108.72
2022-12-05T01:51:58.535Z,101098.88
2022-12-05T01:54:25.921Z,101102.50
2022-12-05T01:57:00.935Z,101097.97
2022-12-05T01:59:35.921Z,101091.84
2022-12-05T02:02:06.079Z,101097.28
2022-12-05T02:04:37.596Z,101090.53
2022-12-05T02:07:05.041Z,101090.03
2022-12-05T02:09:32.414Z,101111.53
2022-12-05T02:12:04.301Z,101104.00
2022-12-05T02:15:05.841Z,101107.63
2022-12-05T02:18:11.805Z,101102.78
2022-12-05T02:21:05.336Z,101098.06
2022-12-05T02:24:03.514Z,101097.97
2022-12-05T02:26:53.263Z,101103.88
2022-12-05T02:29:49.037Z,101105.47
2022-12-05T02:32:29.661Z,101103.38
2022-12-05T02:35:24.340Z,101106.72
2022-12-05T02:38:15.237Z,101112.16
2022-12-05T02:40:56.403Z,101111.34
2022-12-05T02:43:32.829Z,101114.56
2022-12-05T02:46:07.091Z,101112.94
2022-12-05T02:48:37.269Z,101107.53
2022-12-05T02:51:07.523Z,101114.84
2022-12-05T02:53:37.381Z,101116.47
2022-12-05T02:56:06.446Z,101116.16
2022-12-05T02:58:48.407Z,101111.34
2022-12-05T03:01:16.238Z,101111.34
2022-12-05T03:03:44.487Z,101108.41
2022-12-05T03:06:16.180Z,101117.84
2022-12-05T03:09:14.997Z,101113.22
2022-12-05T03:11:47.416Z,101109.22
2022-12-05T03:14:22.838Z,101112.44
2022-12-05T03:16:54.007Z,101098.59
2022-12-05T03:19:41.032Z,101095.88
2022-12-05T03:22:15.145Z,101103.69
2022-12-05T03:24:43.655Z,101102.09
2022-12-05T03:27:25.755Z,101114.84
2022-12-05T03:29:55.894Z,101124.81
2022-12-05T03:32:36.889Z,101117.75
2022-12-05T03:35:13.448Z,101112.44
2022-12-05T03:37:55.690Z,101109.13
2022-12-05T03:40:49.149Z,101115.66
2022-12-05T03:43:44.156Z,101117.13
2022-12-05T03:46:32.900Z,101119.66
2022-12-05T03:49:33.859Z,101121.75
2022-12-05T03:52:01.746Z,101117.19
2022-12-05T03:54:44.065Z,101111.75
2022-12-05T03:57:23.344Z,101117.56
2022-12-05T03:59:59.372Z,101125.41
2022-12-05T04:02:33.610Z,101122.19
2022-12-05T04:05:16.512Z,101122.19
2022-12-05T04:07:46.255Z,101120.75
2022-12-05T04:10:19.237Z,101104.69
2022-12-05T04:12:47.084Z,101098.84
2022-12-05T04:15:23.267Z,101091.44
2022-12-05T04:17:56.978Z,101079.97
2022-12-05T04:20:51.143Z,101073.75
2022-12-05T04:23:18.635Z,101084.03
2022-12-05T04:26:24.384Z,101093.47
2022-12-05T04:29:00.198Z,101088.94
2022-12-05T04:31:35.679Z,101087.00
2022-12-05T04:34:07.154Z,101093.25
2022-12-05T04:36:42.311Z,101091.63
2022-12-05T04:39:19.969Z,101089.94
2022-12-05T04:41:53.380Z,101078.78
2022-12-05T04:44:27.669Z,101091.22
2022-12-05T04:47:02.144Z,101086.63
2022-12-05T04:49:32.642Z,101089.25
2022-12-05T04:52:05.751Z,101086.81
2022-12-05T04:54:46.066Z,101082.28
2022-12-05T04:57:30.859Z,101075.06
2022-12-05T04:59:58.522Z,101077.06
2022-12-05T05:02:48.215Z,101084.31
2022-12-05T05:05:20.735Z,101093.16
2022-12-05T05:07:53.254Z,101097.50
2022-12-05T05:10:37.756Z,101100.78
2022-12-05T05:13:05.124Z,101100.78
2022-12-05T05:15:32.468Z,101103.41
2022-12-05T05:17:59.812Z,101103.91
2022-12-05T05:20:27.560Z,101102.81
2022-12-05T05:22:58.486Z,101102.31
2022-12-05T05:25:26.136Z,101105.53
2022-12-05T05:27:55.767Z,101101.72
2022-12-05T05:30:24.958Z,101103.00
2022-12-05T05:32:52.757Z,101109.56
2022-12-05T05:35:23.245Z,101111.16
2022-12-05T05:37:50.749Z,101107.94
2022-12-05T05:40:18.378Z,101117.19
2022-12-05T05:42:48.060Z,101114.75
2022-12-05T05:45:16.132Z,101113.16
2022-12-05T05:47:44.021Z,101117.47
2022-12-05T05:50:17.799Z,101120.50
2022-12-05T05:52:45.417Z,101122.41
2022-12-05T05:55:12.834Z,101115.06
2022-12-05T05:57:40.160Z,101117.78
2022-12-05T06:00:09.717Z,101118.81
2022-12-05T06:02:37.605Z,101116.09
2022-12-05T06:05:05.468Z,101104.22
2022-12-05T06:07:32.828Z,101110.44
2022-12-05T06:10:00.544Z,101107.53
2022-12-05T06:12:28.217Z,101117.75
2022-12-05T06:14:55.658Z,101121.00
2022-12-05T06:17:23.064Z,101115.94
2022-12-05T06:19:50.434Z,101113.22
2022-12-05T06:22:18.034Z,101126.78
2022-12-05T06:24:45.388Z,101117.94
2022-12-05T06:27:12.785Z,101124.47
2022-12-05T06:29:40.248Z,101125.91
2022-12-05T06:32:10.089Z,101119.66
2022-12-05T06:34:37.490Z,101120.47
2022-12-05T06:37:04.940Z,101126.97
2022-12-05T06:39:32.525Z,101119.94
2022-12-05T06:41:59.970Z,101125.59
2022-12-05T06:44:28.727Z,101119.06
2022-12-05T06:46:56.325Z,101130.69
2022-12-05T06:49:31.609Z,101134.75
2022-12-05T06:52:01.209Z,101137.47
2022-12-05T06:54:28.532Z,101143.47
2022-12-05T06:56:58.650Z,101147.28
2022-12-05T06:59:25.967Z,101141.28
2022-12-05T07:01:53.390Z,101133.63
2022-12-05T07:04:25.892Z,101142.28
2022-12-05T07:06:55.857Z,101152.22
2022-12-05T07:09:44.386Z,101149.25
2022-12-05T07:12:12.710Z,101145.34
2022-12-05T07:14:47.571Z,101147.34
2022-12-05T07:17:17.110Z,101135.81
2022-12-05T07:19:44.714Z,101140.03
2022-12-05T07:22:15.704Z,101140.34
2022-12-05T07:24:46.551Z,101140.06
2022-12-05T07:27:15.301Z,101147.31
2022-12-05T07:29:42.718Z,101143.97
2022-12-05T07:32:10.150Z,101146.19
2022-12-05T07:34:38.926Z,101143.97
2022-12-05T07:37:06.393Z,101151.84
2022-12-05T07:39:33.833Z,101153.72
2022-12-05T07:42:01.182Z,101149.22
2022-12-05T07:44:28.544Z,101155.13
2022-12-05T07:46:55.833Z,101148.50
2022-12-05T07:49:23.202Z,101150.00
2022-12-05T07:51:50.706Z,101150.31
2022-12-05T07:54:18.105Z,101163.28
2022-12-05T07:56:47.942Z,101168.53
2022-12-05T07:59:15.577Z,101165.00
2022-12-05T08:01:43.010Z,101166.41
2022-12-05T08:04:15.072Z,101171.63
2022-12-05T08:06:43.489Z,101162.50
2022-12-05T08:09:10.936Z,101170.72
2022-12-05T08:11:38.241Z,101160.16
2022-12-05T08:14:06.582Z,101169.75
2022-12-05T08:16:34.027Z,101168.09
2022-12-05T08:19:04.943Z,101172.25
2022-12-05T08:21:35.191Z,101176.47
2022-12-05T08:24:06.067Z,101172.03
2022-12-05T08:26:35.417Z,101170.03
2022-12-05T08:29:06.723Z,101172.75
2022-12-05T08:31:36.970Z,101171.63
2022-12-05T08:34:04.382Z,101165.88
2022-12-05T08:36:32.321Z,101156.00
2022-12-05T08:39:03.106Z,101144.34
2022-12-05T08:41:31.134Z,101159.94
2022-12-05T08:44:06.051Z,101156.19
2022-12-05T08:46:36.022Z,101153.75
2022-12-05T08:49:05.068Z,101157.47
2022-12-05T08:51:32.445Z,101151.56
2022-12-05T08:54:04.265Z,101152.47
2022-12-05T08:56:33.126Z,101147.72
2022-12-05T08:59:05.851Z,101150.22
2022-12-05T09:01:37.180Z,101149.91
2022-12-05T09:04:05.703Z,101163.59
2022-12-05T09:06:34.731Z,101168.47
2022-12-05T09:09:06.147Z,101181.88
2022-12-05T09:11:36.487Z,101176.25
2022-12-05T09:14:05.580Z,101177.53
2022-12-05T09:16:38.335Z,101168.19
2022-12-05T09:19:18.164Z,101177.03
2022-12-05T09:21:45.561Z,101172.06
2022-12-05T09:24:13.509Z,101174.47
2022-12-05T09:26:41.786Z,101178.84
2022-12-05T09:29:16.268Z,101165.53
2022-12-05T09:31:46.870Z,101172.28
2022-12-05T09:34:15.392Z,101163.59
2022-12-05T09:36:43.232Z,101162.81
2022-12-05T09:39:11.336Z,101155.66
2022-12-05T09:42:07.919Z,101147.44
2022-12-05T09:44:46.836Z,101141.50
2022-12-05T09:47:19.869Z,101138.53
2022-12-05T09:50:00.018Z,101128.00
2022-12-05T09:52:39.863Z,101123.16
2022-12-05T09:55:16.394Z,101123.16
2022-12-05T09:57:55.169Z,101120.22
2022-12-05T10:00:22.966Z,101125.47
2022-12-05T10:03:35.898Z,101123.94
2022-12-05T10:06:16.404Z,101134.63
2022-12-05T10:09:05.809Z,101136.69
2022-12-05T10:11:38.870Z,101124.22
2022-12-05T10:14:14.708Z,101124.06
2022-12-05T10:16:51.644Z,101124.81
2022-12-05T10:19:23.867Z,101120.69
2022-12-05T10:21:56.828Z,101117.09
2022-12-05T10:24:32.125Z,101111.91
2022-12-05T10:27:04.768Z,101117.81
2022-12-05T10:29:34.952Z,101130.75
2022-12-05T10:32:13.185Z,101142.72
2022-12-05T10:34:43.076Z,101129.88
2022-12-05T10:37:15.822Z,101135.31
2022-12-05T10:39:44.258Z,101128.28
2022-12-05T10:42:19.470Z,101127.44
2022-12-05T10:44:58.216Z,101125.94
2022-12-05T10:47:26.004Z,101119.69
2022-12-05T10:49:56.010Z,101117.50
2022-12-05T10:52:24.085Z,101118.81
2022-12-05T10:55:06.567Z,101114.47
2022-12-05T10:57:33.910Z,101105.13
2022-12-05T11:00:13.868Z,101101.94
2022-12-05T11:02:43.035Z,101079.03
2022-12-05T11:05:13.913Z,101070.94
2022-12-05T11:07:44.185Z,101065.94
2022-12-05T11:10:26.912Z,101049.41
2022-12-05T11:12:57.888Z,101056.59
2022-12-05T11:15:28.958Z,101057.47
2022-12-05T11:18:17.398Z,101049.28
2022-12-05T11:20:44.803Z,101051.53
2022-12-05T11:23:27.653Z,101053.56
2022-12-05T11:25:57.361Z,101052.78
2022-12-05T11:28:36.840Z,101045.41
2022-12-05T11:31:16.407Z,101042.03
2022-12-05T11:33:43.824Z,101041.19
2022-12-05T11:36:11.112Z,101048.38
2022-12-05T11:38:41.230Z,101052.66
2022-12-05T11:41:18.238Z,101047.13
2022-12-05T11:44:00.472Z,101046.31
2022-12-05T11:46:58.539Z,101033.25
2022-12-05T11:49:44.358Z,101023.47
2022-12-05T11:52:14.458Z,101026.69
2022-12-05T11:55:23.371Z,101020.59
2022-12-05T11:57:52.435Z,101010.31
2022-12-05T12:00:24.881Z,101007.91
2022-12-05T12:02:58.116Z,101007.78
2022-12-05T12:05:39.103Z,101015.16
2022-12-05T12:08:29.626Z,101007.78
2022-12-05T12:11:29.953Z,101007.59
2022-12-05T12:14:06.110Z,101007.91
2022-12-05T12:16:59.371Z,101001.03
2022-12-05T12:19:45.112Z,101005.84
2022-12-05T12:22:43.122Z,100997.16
2022-12-05T12:25:19.213Z,100989.16
2022-12-05T12:28:14.849Z,100981.59
2022-12-05T12:31:17.473Z,100990.28
2022-12-05T12:33:59.449Z,100991.88
2022-12-05T12:36:45.693Z,100977.44
2022-12-05T12:39:30.971Z,100973.63
2022-12-05T12:42:35.615Z,100980.31
2022-12-05T12:45:24.821Z,100971.19
2022-12-05T12:47:55.112Z,100968.16
2022-12-05T12:50:29.591Z,100969.44
2022-12-05T12:53:27.611Z,100967.03
2022-12-05T12:56:19.665Z,100960.47
2022-12-05T12:59:03.129Z,100952.75
2022-12-05T13:01:55.127Z,100966.06
2022-12-05T13:04:30.146Z,100968.16
2022-12-05T13:07:03.948Z,100967.53
2022-12-05T13:09:40.358Z,100969.44
2022-12-05T13:12:15.432Z,100975.81
2022-12-05T13:14:52.379Z,100970.53
2022-12-05T13:17:22.769Z,100970.03
2022-12-05T13:19:52.466Z,100973.25
2022-12-05T13:22:26.261Z,100962.03
2022-12-05T13:24:55.165Z,100954.63
2022-12-05T13:27:27.486Z,100955.19
2022-12-05T13:30:01.232Z,100949.88
2022-12-05T13:32:43.909Z,100952.91
2022-12-05T13:35:55.193Z,100960.94
2022-12-05T13:38:49.950Z,100967.81
2022-12-05T13:41:36.304Z,100958.50
2022-12-05T13:44:12.642Z,100962.00
2022-12-05T13:46:43.190Z,100972.91
2022-12-05T13:49:26.101Z,100976.28
2022-12-05T13:51:53.838Z,100980.75
2022-12-05T13:54:27.874Z,100987.78
2022-12-05T13:57:05.239Z,100975.91
2022-12-05T14:00:00.497Z,100948.75
2022-12-05T14:02:46.483Z,100943.44
2022-12-05T14:05:13.983Z,100945.84
2022-12-05T14:07:48.175Z,100951.13
2022-12-05T14:10:20.974Z,100946.94
2022-12-05T14:12:54.017Z,100941.97
2022-12-05T14:15:24.120Z,100948.69
2022-12-05T14:17:58.699Z,100942.28
2022-12-05T14:20:52.384Z,100951.41
2022-12-05T14:23:44.422Z,100959.72
2022-12-05T14:26:49.444Z,100955.88
2022-12-05T14:29:37.313Z,100952.06
2022-12-05T14:32:04.930Z,100951.13
2022-12-05T14:34:36.925Z,100950.94
2022-12-05T14:37:26.208Z,100949.78
2022-12-05T14:39:58.407Z,100945.94
2022-12-05T14:42:36.073Z,100937.31
2022-12-05T14:45:42.288Z,100943.53
2022-12-05T14:48:15.616Z,100946.25
2022-12-05T14:50:46.269Z,100940.34
2022-12-05T14:53:34.596Z,100947.38
2022-12-05T14:56:25.046Z,100944.50
2022-12-05T14:59:02.076Z,100940.31
2022-12-05T15:01:50.324Z,100952.03
2022-12-05T15:04:24.273Z,100954.44
2022-12-05T15:07:35.630Z,100961.16
2022-12-05T15:10:23.502Z,100958.09
2022-12-05T15:13:05.263Z,100956.94
2022-12-05T15:15:37.593Z,100963.50
2022-12-05T15:18:27.457Z,100956.41
2022-12-05T15:20:59.203Z,100965.19
2022-12-05T15:23:48.417Z,100972.88
2022-12-05T15:26:47.602Z,100975.94
2022-12-05T15:29:23.817Z,100964.38
2022-12-05T15:31:53.217Z,100970.78
2022-12-05T15:34:44.822Z,100973.06
2022-12-05T15:37:44.167Z,100969.84
2022-12-05T15:40:17.593Z,100957.16
2022-12-05T15:42:47.207Z,100971.09
2022-12-05T15:45:17.459Z,100973.59
2022-12-05T15:47:47.703Z,100968.69
2022-12-05T15:50:17.060Z,100965.28
2022-12-05T15:52:51.401Z,100950.59
2022-12-05T15:55:27.784Z,100956.69
2022-12-05T15:58:06.874Z,100956.28
2022-12-05T16:00:40.883Z,100951.50
2022-12-05T16:03:17.869Z,100948.94
2022-12-05T16:05:57.913Z,100947.03
2022-12-05T16:08:30.002Z,100961.25
2022-12-05T16:10:57.423Z,100963.34
2022-12-05T16:13:27.131Z,100965.97
2022-12-05T16:15:57.641Z,100976.63
2022-12-05T16:18:31.140Z,100981.16
2022-12-05T16:20:59.009Z,100968.00
2022-12-05T16:23:32.917Z,100968.47
2022-12-05T16:26:12.546Z,100968.22
2022-12-05T16:28:39.973Z,100970.34
2022-12-05T16:31:08.254Z,100968.03
2022-12-05T16:33:38.964Z,100979.81
2022-12-05T16:36:14.501Z,100980.91
2022-12-05T16:38:43.374Z,100972.75
2022-12-05T16:41:11.969Z,100971.28
2022-12-05T16:43:39.319Z,100970.59
2022-12-05T16:46:13.269Z,100964.97
2022-12-05T16:48:45.584Z,100964.84
2022-12-05T16:51:18.259Z,100970.13
2022-12-05T16:53:51.014Z,100969.63
2022-12-05T16:56:25.278Z,100973.50
2022-12-05T16:58:53.303Z,100968.56
2022-12-05T17:01:27.301Z,100964.25
2022-12-05T17:03:56.153Z,100967.75
2022-12-05T17:06:25.891Z,100969.00
2022-12-05T17:08:54.717Z,100964.09
2022-12-05T17:11:29.620Z,100968.88
2022-12-05T17:13:58.810Z,100987.84
2022-12-05T17:16:27.080Z,100988.09
2022-12-05T17:18:54.877Z,100989.16
2022-12-05T17:21:25.744Z,100982.28
2022-12-05T17:23:53.166Z,100985.31
2022-12-05T17:26:24.948Z,100988.50
2022-12-05T17:28:52.861Z,100981.94
2022-12-05T17:31:22.935Z,100981.25
2022-12-05T17:33:52.806Z,100980.16
2022-12-05T17:36:21.215Z,100972.59
2022-12-05T17:38:49.089Z,100971.31
2022-12-05T17:41:25.273Z,100977.28
2022-12-05T17:43:52.836Z,100984.69
2022-12-05T17:46:22.808Z,100980.06
2022-12-05T17:48:51.722Z,100982.53
2022-12-05T17:51:20.275Z,100985.91
2022-12-05T17:53:47.811Z,100984.69
2022-12-05T17:56:18.307Z,100991.69
2022-12-05T17:58:46.181Z,100984.94
2022-12-05T18:01:19.642Z,100990.22
2022-12-05T18:03:48.799Z,100985.38
2022-12-05T18:06:16.992Z,100983.47
2022-12-05T18:08:45.559Z,100982.66
2022-12-05T18:11:14.834Z,100986.56
2022-12-05T18:13:42.326Z,100984.13
2022-12-05T18:16:09.905Z,100984.00
2022-12-05T18:18:37.321Z,100990.50
2022-12-05T18:21:12.458Z,101000.41
2022-12-05T18:23:40.741Z,101000.91
2022-12-05T18:26:09.830Z,100997.19
2022-12-05T18:28:38.826Z,100997.06
2022-12-05T18:31:12.412Z,100990.81
2022-12-05T18:33:40.281Z,100990.34
2022-12-05T18:36:17.406Z,100986.63
2022-12-05T18:38:53.268Z,100993.78
2022-12-05T18:41:23.647Z,100991.63
2022-12-05T18:43:51.286Z,100993.66
2022-12-05T18:46:19.326Z,100986.19
2022-12-05T18:48:47.996Z,101001.69
2022-12-05T18:51:19.203Z,101002.34
2022-12-05T18:53:52.652Z,101004.41
2022-12-05T18:56:29.412Z,101003.00
2022-12-05T18:59:00.199Z,101000.78
2022-12-05T19:01:29.635Z,100998.38
2022-12-05T19:03:58.256Z,101004.63
2022-12-05T19:06:29.869Z,101005.53
2022-12-05T19:09:00.145Z,101003.38
2022-12-05T19:11:28.856Z,101004.00
2022-12-05T19:13:58.433Z,100999.84
2022-12-05T19:16:27.035Z,100991.94
2022-12-05T19:18:58.366Z,100999.59
2022-12-05T19:21:27.722Z,100997.91
2022-12-05T19:23:55.748Z,100995.63
2022-12-05T19:26:23.753Z,101006.72
2022-12-05T19:28:51.503Z,101000.16
2022-12-05T19:31:23.591Z,101004.91
2022-12-05T19:33:51.857Z,101004.78
2022-12-05T19:36:22.232Z,101001.84
2022-12-05T19:38:51.489Z,100996.00
2022-12-05T19:41:27.450Z,101003.63
2022-12-05T19:44:00.463Z,101009.94
2022-12-05T19:46:29.866Z,101007.91
2022-12-05T19:49:15.788Z,101011.53
2022-12-05T19:52:01.622Z,101002.34
2022-12-05T19:54:30.161Z,101007.56
2022-12-05T19:57:00.559Z,101011.50
2022-12-05T19:59:28.033Z,101012.31
2022-12-05T20:01:55.533Z,101012.31
2022-12-05T20:04:23.017Z,101013.63
2022-12-05T20:06:50.480Z,101011.81
2022-12-05T20:09:20.605Z,101019.06
2022-12-05T20:11:55.196Z,101007.19
2022-12-05T20:14:25.695Z,101009.91
2022-12-05T20:16:53.619Z,101008.69
2022-12-05T20:19:21.915Z,101002.69
2022-12-05T20:21:49.541Z,101005.22
2022-12-05T20:24:16.946Z,101015.97
2022-12-05T20:26:44.931Z,101022.31
2022-12-05T20:29:12.677Z,101016.16
2022-12-05T20:31:41.917Z,101023.69
2022-12-05T20:34:11.596Z,101022.69
2022-12-05T20:36:38.909Z,101017.16
2022-12-05T20:39:08.728Z,101022.31
2022-12-05T20:41:36.204Z,101015.66
2022-12-05T20:44:08.900Z,101027.41
2022-12-05T20:46:36.887Z,101022.91
2022-12-05T20:49:04.398Z,101027.31
2022-12-05T20:51:34.041Z,101028.75
2022-12-05T20:54:03.869Z,101022.78
2022-12-05T20:56:32.831Z,101025.72
2022-12-05T20:59:02.847Z,101028.00
2022-12-05T21:01:31.954Z,101030.53
2022-12-05T21:03:59.609Z,101027.69
2022-12-05T21:06:46.595Z,101016.16
2022-12-05T21:09:26.591Z,101021.19
2022-12-05T21:11:55.416Z,101024.28
2022-12-05T21:14:24.065Z,101020.38
2022-12-05T21:16:53.243Z,101022.06
2022-12-05T21:19:21.389Z,101034.56
2022-12-05T21:21:49.799Z,101019.97
2022-12-05T21:24:17.132Z,101031.72
2022-12-05T21:26:44.539Z,101016.66
2022-12-05T21:29:11.902Z,101027.00
2022-12-05T21:31:44.014Z,101026.09
2022-12-05T21:34:19.612Z,101024.31
2022-12-05T21:36:47.733Z,101023.78
2022-12-05T21:39:15.950Z,101028.31
2022-12-05T21:41:43.275Z,101029.22
2022-12-05T21:44:10.724Z,101015.97
2022-12-05T21:46:38.289Z,101020.97
2022-12-05T21:49:05.761Z,101022.91
2022-12-05T21:51:33.123Z,101012.53
2022-12-05T21:54:00.500Z,101018.25
2022-12-05T21:56:28.564Z,101020.56
2022-12-05T21:58:57.369Z,101023.56
2022-12-05T22:01:27.729Z,101022.63
2022-12-05T22:04:00.918Z,101025.31
2022-12-05T22:06:34.022Z,101024.69
2022-12-05T22:09:01.862Z,101023.13
2022-12-05T22:11:29.258Z,101024.69
2022-12-05T22:13:56.637Z,101029.88
2022-12-05T22:16:30.655Z,101023.34
2022-12-05T22:19:00.191Z,101020.38
2022-12-05T22:21:28.001Z,101008.56
2022-12-05T22:23:55.606Z,101006.66
2022-12-05T22:26:25.277Z,101009.25
2022-12-05T22:28:54.228Z,101006.53
2022-12-05T22:31:22.997Z,101002.69
2022-12-05T22:33:51.036Z,101003.28
2022-12-05T22:36:19.671Z,100998.44
2022-12-05T22:38:48.115Z,100993.03
2022-12-05T22:41:20.129Z,100996.16
2022-12-05T22:43:49.273Z,100998.25
2022-12-05T22:46:19.046Z,100991.09
2022-12-05T22:48:48.265Z,100993.16
2022-12-05T22:51:16.832Z,100993.72
2022-12-05T22:53:44.796Z,100989.44
2022-12-05T22:56:15.071Z,100989.63
2022-12-05T22:58:43.476Z,100989.81
2022-12-05T23:01:13.361Z,100991.09
2022-12-05T23:03:41.898Z,100986.72
2022-12-05T23:06:11.918Z,100989.63
2022-12-05T23:08:41.433Z,100994.22
2022-12-05T23:11:09.692Z,100992.78
2022-12-05T23:13:38.194Z,101003.53
2022-12-05T23:16:07.664Z,100998.44
2022-12-05T23:18:46.565Z,100996.78
2022-12-05T23:21:16.712Z,100999.00
2022-12-05T23:23:44.890Z,100999.22
2022-12-05T23:26:12.849Z,100998.13
2022-12-05T23:28:40.294Z,100996.28
2022-12-05T23:31:09.795Z,100994.56
2022-12-05T23:33:37.774Z,100991.44
2022-12-05T23:36:05.669Z,100991.53
2022-12-05T23:38:34.728Z,100994.47
2022-12-05T23:41:07.913Z,100987.59
2022-12-05T23:43:36.631Z,100977.97
2022-12-05T23:46:05.477Z,100976.41
2022-12-05T23:48:33.427Z,100975.28
2022-12-05T23:51:04.354Z,100975.97
2022-12-05T23:53:33.758Z,100977.78
2022-12-05T23:56:15.659Z,100972.41
2022-12-05T23:58:43.850Z,100980.81
